x

Portland 12 Nm Southeast Of Portland,me (44007) Wave Buoy

7:50 - Fri 26th Aug 2016 All times are EDT. -4 hours from GMT.

  • Sig Wave height 1.6ft
  • Swell Direction
  • Peak Period 6s
  • Average Period 4s
  • Wind
    13mph
  • Sea Temp 65°f
  • Ar Temp 71°f
  • Sea Pressure 1013.2mb
  • Portland 12 Nm Southeast Of Portland,me
  • Portland 12 Nm Southeast Of Portland,me

More Historic Weather Station data

Upgrade to MSW Pro to gain access to the past 30 days of data for over 8000 Wavebouys and Weather Stations around the globe.

Join Pro

Comparision Forecast

View Surf forecast
   
Sex 08/26 7:50 1.6ft 6s 4s 13
mph
1013.2mb 65f 71f
6:50 1.6ft 5s 5s 9 11 mph 1012.7mb 65f 69f
5:50 2ft 8s 5s 9 11 mph 1012.4mb 65f 69f
4:50 2ft 5s 5s 9
mph
1012.6mb 65f 69f
3:50 2ft 5s 4s 7
mph
1012.7mb 64f 69f
2:50 2ft 8s 5s 7
mph
1012.7mb 64f 68f
1:50 2ft 8s 4s 7
mph
1013.2mb 63f 66f
12:50 2ft 5s 4s 7 9 mph 1012.8mb 63f 66f
11:50 2ft 5s 5s 4 7 mph 1013.2mb 63f 69f
10:50 2.5ft 6s 5s 7
mph
1013.9mb 63f 67f
9:50 2.5ft 6s 5s 11 13 mph 1013.6mb 63f 66f
8:50 2.5ft 6s 5s 4 9 mph 1013.2mb 63f 66f
7:50 2.5ft 5s 4s 7
mph
1013.1mb 63f 67f
6:50 2.5ft 5s 4s 7 9 mph 1012.8mb 63f 66f
5:50 3ft 5s 4s 11 13 mph 1012.8mb 63f 66f
4:50 3.5ft 6s 4s 13
mph
1012.3mb 63f 66f
3:50 3.5ft 5s 4s 13 16 mph 1012.3mb 63f 66f
2:50 3.5ft 6s 4s 16 18 mph 1012.6mb 63f 67f
1:50 3.5ft 6s 5s 11 13 mph 1012.9mb 63f 67f
12:50 3.5ft 6s 5s 11
mph
1013.3mb 63f 66f
Qui 08/25 11:50 3.5ft 6s 5s 13
mph
1013.5mb 63f 67f
10:50 3.5ft 6s 5s 9
mph
1014.1mb 63f 66f
9:50 3.5ft 6s 5s 11
mph
1014mb 63f 66f
8:50 3.5ft 5s 5s 13 16 mph 1013.8mb 63f 67f
7:50 3.5ft 5s 4s 16 18 mph 1013.4mb 63f 68f
6:50 3.5ft 5s 4s 18 20 mph 1013.1mb 63f 69f
5:50 3.5ft 5s 4s 18 20 mph 1013.2mb 64f 68f
4:50 3.5ft 5s 4s 18 20 mph 1013.1mb 64f 69f
3:50 3.5ft 5s 4s 18 20 mph 1013.3mb 64f 69f
2:50 3.5ft 5s 4s 20 22 mph 1014.1mb 64f 69f
1:50 4ft 5s 4s 18 20 mph 1015mb 64f 68f
12:50 3.5ft 5s 4s 20 22 mph 1015.5mb 64f 68f
11:50 3.5ft 5s 4s 18 20 mph 1015.9mb 64f 67f
10:50 3ft 5s 4s 18 20 mph 1016.4mb 64f 67f
9:50 2.5ft 5s 4s 18 22 mph 1016.7mb 64f 66f
8:50 2.5ft 5s 4s 20 25 mph 1016.6mb 64f 66f
7:50 2.5ft 5s 4s 20 22 mph 1016.5mb 64f 66f
6:50 2.5ft 5s 4s 18 20 mph 1017mb 64f 66f
5:50 2ft 4s 4s 16 18 mph 1017.3mb 64f 66f
4:50 1.6ft 4s 4s 11 13 mph 1017.3mb 64f 66f
3:50 2ft 4s 4s 13
mph
1017.5mb 64f 67f
2:50 1.6ft 4s 4s 13 16 mph 1017.3mb 64f 67f
1:50 1.6ft 4s 4s 11
mph
1018.1mb 64f 67f
12:50 1.6ft 4s 4s 9
mph
1019.1mb 64f 66f
Qua 08/24 10:50 2ft 4s 4s 9
mph
1019.6mb 65f 67f
9:50 1.6ft 4s 4s 11
mph
1019.8mb 65f 67f
8:50 2ft 4s 4s 7
mph
1020.2mb 65f 67f
7:50 2ft 4s 4s 4 7 mph 1020.2mb 65f 68f
6:50 2ft 11s 4s 7 9 mph 1019.9mb 65f 68f
5:50 1.6ft 4s 4s 13 16 mph 1019.4mb 65f 69f
4:50 1.3ft 12s 4s 13
mph
1019.9mb 66f 70f
3:50 1.6ft 7s 4s 11
mph
1020.2mb 66f 69f
2:50 1.6ft 8s 4s 11 13 mph 1020.7mb 66f 68f
1:50 1.6ft 8s 4s 11 13 mph 1021.3mb 66f 67f
12:50 1.3ft 9s  -  11
mph
1021.6mb 65f 67f
11:50 1.6ft 4s 4s 9 11 mph 1022.4mb 65f 66f
10:50 1.3ft 8s 4s 7 9 mph 1022.6mb 65f 66f
9:50 1.3ft 9s 4s 7 9 mph 1023.1mb 64f 65f
8:50 1.3ft 11s 4s 7 9 mph 1022.8mb 64f 64f
7:50 1.3ft 10s 5s 4 7 mph 1023.2mb 64f 64f
5:50 1.6ft 4s 4s 4 7 mph 1021.9mb 64f 64f
4:50 1.6ft 4s 5s 4
mph
1021.9mb 64f 64f
3:50 1.6ft 4s 4s 4
mph
1022mb 64f 65f
2:50 1.6ft 7s 4s 7 9 mph 1022.2mb 65f 65f
1:50 2ft 4s 4s 11
mph
1022.2mb 65f 66f
12:50 2ft 4s 4s 9
mph
1022.6mb 65f 65f
Ter 08/23 11:50 2.5ft 4s 4s 9 11 mph 1022.6mb 65f 66f
10:50 2.5ft 4s 4s 9 11 mph 1022.4mb 65f 67f
9:50 2.5ft 4s 4s 11 13 mph 1022.1mb 65f 67f
8:50 2.5ft 4s 4s 16 18 mph 1021.7mb 66f 68f
7:50 2.5ft 4s 4s 16 18 mph 1021.4mb 66f 68f
6:50 2ft 4s 4s 13 16 mph 1021.5mb 66f 68f
5:50 2ft 3s 4s 16 20 mph 1021.1mb 66f 69f
4:50 2ft 3s 3s 16 18 mph 1021.4mb 66f 68f
3:50 1.6ft 7s 4s 16 18 mph 1021.8mb 66f 68f
2:50 1.3ft 11s 4s 13 16 mph 1022.5mb 66f 68f
1:50 1.3ft 8s 4s 13
mph
1022.8mb 66f 67f
12:50 1.3ft 8s 5s 11 13 mph 1023.1mb 66f 67f
11:50 1.3ft 11s 5s 9
mph
1023.5mb 65f 66f
10:50 1.3ft 8s 5s 7
mph
1023.8mb 65f 66f
9:50 1.3ft 9s 5s 9
mph
1023.8mb 64f 64f
8:50 1.3ft 10s 4s 11 13 mph 1023.6mb 64f 62f
7:50 1.3ft 10s 5s 13
mph
1023mb 64f 62f
6:50 1.3ft 12s 4s 13 16 mph 1022.5mb 64f 61f
4:50 1.3ft 10s 4s 13 16 mph 1020.9mb 65f 61f
3:50 1.3ft 12s 4s 16 18 mph 1020.5mb 65f 61f
2:50 1.3ft 8s 4s 13 16 mph 1020.4mb 65f 62f
1:50 1.3ft 10s 4s 9 11 mph 1020.2mb 65f 62f